sensor_id;sensor_type;location;lat;lon;timestamp;temperature;humidity
16674;DHT22;8450;52.654;10.326;2024-03-22T00:01:57;7.50;99.90
16674;DHT22;8450;52.654;10.326;2024-03-22T00:04:23;7.50;99.90
16674;DHT22;8450;52.654;10.326;2024-03-22T00:06:49;7.50;99.90
16674;DHT22;8450;52.654;10.326;2024-03-22T00:09:16;7.50;99.90
16674;DHT22;8450;52.654;10.326;2024-03-22T00:11:43;7.50;99.90
16674;DHT22;8450;52.654;10.326;2024-03-22T00:14:09;7.50;99.90
16674;DHT22;8450;52.654;10.326;2024-03-22T00:16:35;7.50;99.90
16674;DHT22;8450;52.654;10.326;2024-03-22T00:19:02;7.60;99.90
16674;DHT22;8450;52.654;10.326;2024-03-22T00:21:27;7.60;99.90
16674;DHT22;8450;52.654;10.326;2024-03-22T00:23:53;7.60;99.90
16674;DHT22;8450;52.654;10.326;2024-03-22T00:26:19;7.60;99.90
16674;DHT22;8450;52.654;10.326;2024-03-22T00:28:44;7.60;99.90
16674;DHT22;8450;52.654;10.326;2024-03-22T00:31:10;7.60;99.90
16674;DHT22;8450;52.654;10.326;2024-03-22T00:33:36;7.60;99.90
16674;DHT22;8450;52.654;10.326;2024-03-22T00:36:02;7.70;99.90
16674;DHT22;8450;52.654;10.326;2024-03-22T00:38:27;7.60;99.90
16674;DHT22;8450;52.654;10.326;2024-03-22T00:40:53;7.70;99.90
16674;DHT22;8450;52.654;10.326;2024-03-22T00:43:20;7.70;99.90
16674;DHT22;8450;52.654;10.326;2024-03-22T00:45:45;7.70;99.90
16674;DHT22;8450;52.654;10.326;2024-03-22T00:48:11;7.70;99.90
16674;DHT22;8450;52.654;10.326;2024-03-22T00:50:36;7.70;99.90
16674;DHT22;8450;52.654;10.326;2024-03-22T00:53:02;7.70;99.90
16674;DHT22;8450;52.654;10.326;2024-03-22T00:55:28;7.80;99.90
16674;DHT22;8450;52.654;10.326;2024-03-22T00:57:54;7.80;99.90
16674;DHT22;8450;52.654;10.326;2024-03-22T01:00:20;7.80;99.90
16674;DHT22;8450;52.654;10.326;2024-03-22T01:02:45;7.80;99.90
16674;DHT22;8450;52.654;10.326;2024-03-22T01:05:11;7.80;99.90
16674;DHT22;8450;52.654;10.326;2024-03-22T01:07:37;7.80;99.90
16674;DHT22;8450;52.654;10.326;2024-03-22T01:10:04;7.80;99.90
16674;DHT22;8450;52.654;10.326;2024-03-22T01:12:30;7.80;99.90
16674;DHT22;8450;52.654;10.326;2024-03-22T01:14:56;7.80;99.90
16674;DHT22;8450;52.654;10.326;2024-03-22T01:17:22;7.90;99.90
16674;DHT22;8450;52.654;10.326;2024-03-22T01:19:48;7.90;99.90
16674;DHT22;8450;52.654;10.326;2024-03-22T01:22:13;7.90;99.90
16674;DHT22;8450;52.654;10.326;2024-03-22T01:24:39;7.90;99.90
16674;DHT22;8450;52.654;10.326;2024-03-22T01:27:05;7.90;99.90
16674;DHT22;8450;52.654;10.326;2024-03-22T01:29:30;7.90;99.90
16674;DHT22;8450;52.654;10.326;2024-03-22T01:31:58;7.90;99.90
16674;DHT22;8450;52.654;10.326;2024-03-22T01:34:23;7.90;99.90
16674;DHT22;8450;52.654;10.326;2024-03-22T01:36:49;7.90;99.90
16674;DHT22;8450;52.654;10.326;2024-03-22T01:39:15;7.90;99.90
16674;DHT22;8450;52.654;10.326;2024-03-22T01:41:43;7.90;99.90
16674;DHT22;8450;52.654;10.326;2024-03-22T01:44:09;7.90;99.90
16674;DHT22;8450;52.654;10.326;2024-03-22T01:46:35;7.90;99.90
16674;DHT22;8450;52.654;10.326;2024-03-22T01:49:01;8.00;99.90
16674;DHT22;8450;52.654;10.326;2024-03-22T01:51:26;8.00;99.90
16674;DHT22;8450;52.654;10.326;2024-03-22T01:53:53;8.00;99.90
16674;DHT22;8450;52.654;10.326;2024-03-22T01:56:19;8.00;99.90
16674;DHT22;8450;52.654;10.326;2024-03-22T01:58:45;8.00;99.90
16674;DHT22;8450;52.654;10.326;2024-03-22T02:01:11;8.00;99.90
16674;DHT22;8450;52.654;10.326;2024-03-22T02:03:36;8.00;99.90
16674;DHT22;8450;52.654;10.326;2024-03-22T02:06:02;8.00;99.90
16674;DHT22;8450;52.654;10.326;2024-03-22T02:08:28;8.00;99.90
16674;DHT22;8450;52.654;10.326;2024-03-22T02:10:53;8.10;99.90
16674;DHT22;8450;52.654;10.326;2024-03-22T02:13:19;8.10;99.90
16674;DHT22;8450;52.654;10.326;2024-03-22T02:15:44;8.10;99.90
16674;DHT22;8450;52.654;10.326;2024-03-22T02:18:10;8.10;99.90
16674;DHT22;8450;52.654;10.326;2024-03-22T02:20:35;8.10;99.90
16674;DHT22;8450;52.654;10.326;2024-03-22T02:23:01;8.10;99.90
16674;DHT22;8450;52.654;10.326;2024-03-22T02:25:26;8.10;99.90
16674;DHT22;8450;52.654;10.326;2024-03-22T02:27:52;8.10;99.90
16674;DHT22;8450;52.654;10.326;2024-03-22T02:30:18;8.20;99.90
16674;DHT22;8450;52.654;10.326;2024-03-22T02:32:43;8.20;99.90
16674;DHT22;8450;52.654;10.326;2024-03-22T02:35:09;8.20;99.90
16674;DHT22;8450;52.654;10.326;2024-03-22T02:37:35;8.20;99.90
16674;DHT22;8450;52.654;10.326;2024-03-22T02:40:00;8.20;99.90
16674;DHT22;8450;52.654;10.326;2024-03-22T02:42:26;8.20;99.90
16674;DHT22;8450;52.654;10.326;2024-03-22T02:44:52;8.20;99.90
16674;DHT22;8450;52.654;10.326;2024-03-22T02:47:18;8.20;99.90
16674;DHT22;8450;52.654;10.326;2024-03-22T02:49:43;8.20;99.90
16674;DHT22;8450;52.654;10.326;2024-03-22T02:52:09;8.30;99.90
16674;DHT22;8450;52.654;10.326;2024-03-22T02:54:34;8.30;99.90
16674;DHT22;8450;52.654;10.326;2024-03-22T02:57:09;8.30;99.90
16674;DHT22;8450;52.654;10.326;2024-03-22T02:59:34;8.30;99.90
16674;DHT22;8450;52.654;10.326;2024-03-22T03:02:00;8.30;99.90
16674;DHT22;8450;52.654;10.326;2024-03-22T03:04:25;8.30;99.90
16674;DHT22;8450;52.654;10.326;2024-03-22T03:06:51;8.40;99.90
16674;DHT22;8450;52.654;10.326;2024-03-22T03:09:16;8.30;99.90
16674;DHT22;8450;52.654;10.326;2024-03-22T03:11:42;8.30;99.90
16674;DHT22;8450;52.654;10.326;2024-03-22T03:14:08;8.30;99.90
16674;DHT22;8450;52.654;10.326;2024-03-22T03:16:33;8.30;99.90
16674;DHT22;8450;52.654;10.326;2024-03-22T03:18:59;8.30;99.90
16674;DHT22;8450;52.654;10.326;2024-03-22T03:21:24;8.30;99.90
16674;DHT22;8450;52.654;10.326;2024-03-22T03:23:50;8.30;99.90
16674;DHT22;8450;52.654;10.326;2024-03-22T03:26:15;8.30;99.90
16674;DHT22;8450;52.654;10.326;2024-03-22T03:28:41;8.40;99.90
16674;DHT22;8450;52.654;10.326;2024-03-22T03:31:06;8.40;99.90
16674;DHT22;8450;52.654;10.326;2024-03-22T03:33:32;8.40;99.90
16674;DHT22;8450;52.654;10.326;2024-03-22T03:35:57;8.40;99.90
16674;DHT22;8450;52.654;10.326;2024-03-22T03:38:23;8.30;99.90
16674;DHT22;8450;52.654;10.326;2024-03-22T03:40:48;8.30;99.90
16674;DHT22;8450;52.654;10.326;2024-03-22T03:43:14;8.30;99.90
16674;DHT22;8450;52.654;10.326;2024-03-22T03:45:39;8.40;99.90
16674;DHT22;8450;52.654;10.326;2024-03-22T03:48:05;8.40;99.90
16674;DHT22;8450;52.654;10.326;2024-03-22T03:50:31;8.40;99.90
16674;DHT22;8450;52.654;10.326;2024-03-22T03:52:57;8.40;99.90
16674;DHT22;8450;52.654;10.326;2024-03-22T03:55:23;8.40;99.90
16674;DHT22;8450;52.654;10.326;2024-03-22T03:57:51;8.40;99.90
16674;DHT22;8450;52.654;10.326;2024-03-22T04:00:19;8.40;99.90
16674;DHT22;8450;52.654;10.326;2024-03-22T04:02:45;8.40;99.90
16674;DHT22;8450;52.654;10.326;2024-03-22T04:05:10;8.50;99.90
16674;DHT22;8450;52.654;10.326;2024-03-22T04:07:36;8.50;99.90
16674;DHT22;8450;52.654;10.326;2024-03-22T04:10:01;8.50;99.90
16674;DHT22;8450;52.654;10.326;2024-03-22T04:12:28;8.50;99.90
16674;DHT22;8450;52.654;10.326;2024-03-22T04:14:54;8.50;99.90
16674;DHT22;8450;52.654;10.326;2024-03-22T04:17:20;8.50;99.90
16674;DHT22;8450;52.654;10.326;2024-03-22T04:19:45;8.50;99.90
16674;DHT22;8450;52.654;10.326;2024-03-22T04:22:11;8.50;99.90
16674;DHT22;8450;52.654;10.326;2024-03-22T04:24:36;8.50;99.90
16674;DHT22;8450;52.654;10.326;2024-03-22T04:27:02;8.50;99.90
16674;DHT22;8450;52.654;10.326;2024-03-22T04:29:27;8.60;99.90
16674;DHT22;8450;52.654;10.326;2024-03-22T04:31:53;8.60;99.90
16674;DHT22;8450;52.654;10.326;2024-03-22T04:34:18;8.60;99.90
16674;DHT22;8450;52.654;10.326;2024-03-22T04:36:44;8.60;99.90
16674;DHT22;8450;52.654;10.326;2024-03-22T04:39:10;8.60;99.90
16674;DHT22;8450;52.654;10.326;2024-03-22T04:41:37;8.60;99.90
16674;DHT22;8450;52.654;10.326;2024-03-22T04:44:03;8.60;99.90
16674;DHT22;8450;52.654;10.326;2024-03-22T04:46:28;8.60;99.90
16674;DHT22;8450;52.654;10.326;2024-03-22T04:48:54;8.60;99.90
16674;DHT22;8450;52.654;10.326;2024-03-22T04:51:19;8.60;99.90
16674;DHT22;8450;52.654;10.326;2024-03-22T04:53:45;8.70;99.90
16674;DHT22;8450;52.654;10.326;2024-03-22T04:56:10;8.60;99.90
16674;DHT22;8450;52.654;10.326;2024-03-22T04:58:36;8.70;99.90
16674;DHT22;8450;52.654;10.326;2024-03-22T05:01:01;8.70;99.90
16674;DHT22;8450;52.654;10.326;2024-03-22T05:03:27;8.70;99.90
16674;DHT22;8450;52.654;10.326;2024-03-22T05:05:52;8.70;99.90
16674;DHT22;8450;52.654;10.326;2024-03-22T05:08:18;8.70;99.90
16674;DHT22;8450;52.654;10.326;2024-03-22T05:10:44;8.70;99.90
16674;DHT22;8450;52.654;10.326;2024-03-22T05:13:09;8.70;99.90
16674;DHT22;8450;52.654;10.326;2024-03-22T05:15:35;8.70;99.90
16674;DHT22;8450;52.654;10.326;2024-03-22T05:18:00;8.70;99.90
16674;DHT22;8450;52.654;10.326;2024-03-22T05:20:26;8.70;99.90
16674;DHT22;8450;52.654;10.326;2024-03-22T05:22:52;8.70;99.90
16674;DHT22;8450;52.654;10.326;2024-03-22T05:25:17;8.70;99.90
16674;DHT22;8450;52.654;10.326;2024-03-22T05:27:44;8.70;99.90
16674;DHT22;8450;52.654;10.326;2024-03-22T05:30:11;8.70;99.90
16674;DHT22;8450;52.654;10.326;2024-03-22T05:32:37;8.70;99.90
16674;DHT22;8450;52.654;10.326;2024-03-22T05:35:02;8.70;99.90
16674;DHT22;8450;52.654;10.326;2024-03-22T05:37:28;8.80;99.90
16674;DHT22;8450;52.654;10.326;2024-03-22T05:39:54;8.80;99.90
16674;DHT22;8450;52.654;10.326;2024-03-22T05:42:19;8.80;99.90
16674;DHT22;8450;52.654;10.326;2024-03-22T05:44:45;8.80;99.90
16674;DHT22;8450;52.654;10.326;2024-03-22T05:47:11;8.80;99.90
16674;DHT22;8450;52.654;10.326;2024-03-22T05:49:36;8.90;99.90
16674;DHT22;8450;52.654;10.326;2024-03-22T05:52:02;8.90;99.90
16674;DHT22;8450;52.654;10.326;2024-03-22T05:54:27;8.90;99.90
16674;DHT22;8450;52.654;10.326;2024-03-22T05:56:53;8.90;99.90
16674;DHT22;8450;52.654;10.326;2024-03-22T05:59:19;8.90;99.90
16674;DHT22;8450;52.654;10.326;2024-03-22T06:01:44;8.90;99.90
16674;DHT22;8450;52.654;10.326;2024-03-22T06:04:10;8.90;99.90
16674;DHT22;8450;52.654;10.326;2024-03-22T06:06:35;8.90;99.90
16674;DHT22;8450;52.654;10.326;2024-03-22T06:09:02;9.00;99.90
16674;DHT22;8450;52.654;10.326;2024-03-22T06:11:35;9.00;99.90
16674;DHT22;8450;52.654;10.326;2024-03-22T06:14:00;9.00;99.90
16674;DHT22;8450;52.654;10.326;2024-03-22T06:16:26;9.00;99.90
16674;DHT22;8450;52.654;10.326;2024-03-22T06:18:52;9.00;99.90
16674;DHT22;8450;52.654;10.326;2024-03-22T06:21:17;9.00;99.90
16674;DHT22;8450;52.654;10.326;2024-03-22T06:23:51;9.10;99.90
16674;DHT22;8450;52.654;10.326;2024-03-22T06:26:17;9.10;99.90
16674;DHT22;8450;52.654;10.326;2024-03-22T06:28:43;9.10;99.90
16674;DHT22;8450;52.654;10.326;2024-03-22T06:31:08;9.10;99.90
16674;DHT22;8450;52.654;10.326;2024-03-22T06:33:34;9.10;99.90
16674;DHT22;8450;52.654;10.326;2024-03-22T06:35:59;9.10;99.90
16674;DHT22;8450;52.654;10.326;2024-03-22T06:38:25;9.10;99.90
16674;DHT22;8450;52.654;10.326;2024-03-22T06:40:51;9.20;99.90
16674;DHT22;8450;52.654;10.326;2024-03-22T06:43:16;9.20;99.90
16674;DHT22;8450;52.654;10.326;2024-03-22T06:45:42;9.20;99.90
16674;DHT22;8450;52.654;10.326;2024-03-22T06:48:07;9.30;99.90
16674;DHT22;8450;52.654;10.326;2024-03-22T06:50:33;9.30;99.90
16674;DHT22;8450;52.654;10.326;2024-03-22T06:52:58;9.30;99.90
16674;DHT22;8450;52.654;10.326;2024-03-22T06:55:24;9.40;99.90
16674;DHT22;8450;52.654;10.326;2024-03-22T06:57:50;9.40;99.90
16674;DHT22;8450;52.654;10.326;2024-03-22T07:00:18;9.40;99.90
16674;DHT22;8450;52.654;10.326;2024-03-22T07:02:44;9.50;99.90
16674;DHT22;8450;52.654;10.326;2024-03-22T07:05:10;9.50;99.90
16674;DHT22;8450;52.654;10.326;2024-03-22T07:07:36;9.50;99.90
16674;DHT22;8450;52.654;10.326;2024-03-22T07:10:03;9.50;99.90
16674;DHT22;8450;52.654;10.326;2024-03-22T07:12:29;9.60;99.90
16674;DHT22;8450;52.654;10.326;2024-03-22T07:14:55;9.60;99.90
16674;DHT22;8450;52.654;10.326;2024-03-22T07:17:20;9.70;99.90
16674;DHT22;8450;52.654;10.326;2024-03-22T07:19:50;9.70;99.90
16674;DHT22;8450;52.654;10.326;2024-03-22T07:22:17;9.80;99.90
16674;DHT22;8450;52.654;10.326;2024-03-22T07:24:42;9.80;99.90
16674;DHT22;8450;52.654;10.326;2024-03-22T07:27:08;9.90;99.90
16674;DHT22;8450;52.654;10.326;2024-03-22T07:29:34;10.00;99.90
16674;DHT22;8450;52.654;10.326;2024-03-22T07:31:59;10.10;99.90
16674;DHT22;8450;52.654;10.326;2024-03-22T07:34:25;10.10;99.90
16674;DHT22;8450;52.654;10.326;2024-03-22T07:36:50;10.20;99.90
16674;DHT22;8450;52.654;10.326;2024-03-22T07:39:16;10.20;99.90
16674;DHT22;8450;52.654;10.326;2024-03-22T07:41:41;10.30;99.90
16674;DHT22;8450;52.654;10.326;2024-03-22T07:44:07;10.30;99.90
16674;DHT22;8450;52.654;10.326;2024-03-22T07:46:33;10.30;99.90
16674;DHT22;8450;52.654;10.326;2024-03-22T07:48:58;10.40;99.90
16674;DHT22;8450;52.654;10.326;2024-03-22T07:51:24;10.40;99.90
16674;DHT22;8450;52.654;10.326;2024-03-22T07:53:50;10.40;99.90
16674;DHT22;8450;52.654;10.326;2024-03-22T07:56:17;10.40;99.90
16674;DHT22;8450;52.654;10.326;2024-03-22T07:58:43;10.40;99.90
16674;DHT22;8450;52.654;10.326;2024-03-22T08:01:08;10.50;99.90
16674;DHT22;8450;52.654;10.326;2024-03-22T08:03:34;10.50;99.90
16674;DHT22;8450;52.654;10.326;2024-03-22T08:06:00;10.50;99.90
16674;DHT22;8450;52.654;10.326;2024-03-22T08:08:25;10.50;99.90
16674;DHT22;8450;52.654;10.326;2024-03-22T08:10:51;10.60;99.90
16674;DHT22;8450;52.654;10.326;2024-03-22T08:13:16;10.60;99.90
16674;DHT22;8450;52.654;10.326;2024-03-22T08:15:42;10.60;99.90
16674;DHT22;8450;52.654;10.326;2024-03-22T08:18:09;10.60;99.90
16674;DHT22;8450;52.654;10.326;2024-03-22T08:20:34;10.70;99.90
16674;DHT22;8450;52.654;10.326;2024-03-22T08:23:00;10.70;99.90
16674;DHT22;8450;52.654;10.326;2024-03-22T08:25:26;10.80;99.90
16674;DHT22;8450;52.654;10.326;2024-03-22T08:27:51;10.80;99.90
16674;DHT22;8450;52.654;10.326;2024-03-22T08:30:20;10.90;99.90
16674;DHT22;8450;52.654;10.326;2024-03-22T08:32:46;10.90;99.90
16674;DHT22;8450;52.654;10.326;2024-03-22T08:35:12;10.90;99.90
16674;DHT22;8450;52.654;10.326;2024-03-22T08:37:37;10.90;99.90
16674;DHT22;8450;52.654;10.326;2024-03-22T08:40:03;11.00;99.90
16674;DHT22;8450;52.654;10.326;2024-03-22T08:42:30;11.00;99.90
16674;DHT22;8450;52.654;10.326;2024-03-22T08:44:55;11.00;99.90
16674;DHT22;8450;52.654;10.326;2024-03-22T08:47:21;11.00;99.90
16674;DHT22;8450;52.654;10.326;2024-03-22T08:49:46;11.10;99.90
16674;DHT22;8450;52.654;10.326;2024-03-22T08:52:12;11.10;99.90
16674;DHT22;8450;52.654;10.326;2024-03-22T08:54:37;11.00;99.90
16674;DHT22;8450;52.654;10.326;2024-03-22T08:57:03;11.10;99.90
16674;DHT22;8450;52.654;10.326;2024-03-22T08:59:28;11.10;99.90
16674;DHT22;8450;52.654;10.326;2024-03-22T09:01:54;11.10;99.90
16674;DHT22;8450;52.654;10.326;2024-03-22T09:04:19;11.10;99.90
16674;DHT22;8450;52.654;10.326;2024-03-22T09:06:45;11.10;99.90
16674;DHT22;8450;52.654;10.326;2024-03-22T09:09:11;11.10;99.90
16674;DHT22;8450;52.654;10.326;2024-03-22T09:11:37;11.00;99.90
16674;DHT22;8450;52.654;10.326;2024-03-22T09:14:02;11.00;99.90
16674;DHT22;8450;52.654;10.326;2024-03-22T09:16:28;11.00;99.90
16674;DHT22;8450;52.654;10.326;2024-03-22T09:18:54;11.00;99.90
16674;DHT22;8450;52.654;10.326;2024-03-22T09:21:19;11.00;99.90
16674;DHT22;8450;52.654;10.326;2024-03-22T09:23:45;11.00;99.90
16674;DHT22;8450;52.654;10.326;2024-03-22T09:26:11;11.00;99.90
16674;DHT22;8450;52.654;10.326;2024-03-22T09:28:36;10.90;99.90
16674;DHT22;8450;52.654;10.326;2024-03-22T09:31:05;10.90;99.90
16674;DHT22;8450;52.654;10.326;2024-03-22T09:33:36;10.90;99.90
16674;DHT22;8450;52.654;10.326;2024-03-22T09:36:02;10.90;99.90
16674;DHT22;8450;52.654;10.326;2024-03-22T09:38:28;11.00;99.90
16674;DHT22;8450;52.654;10.326;2024-03-22T09:40:54;11.00;99.90
16674;DHT22;8450;52.654;10.326;2024-03-22T09:43:23;11.00;99.90
16674;DHT22;8450;52.654;10.326;2024-03-22T09:45:50;11.00;99.90
16674;DHT22;8450;52.654;10.326;2024-03-22T09:48:18;11.00;99.90
16674;DHT22;8450;52.654;10.326;2024-03-22T09:50:47;11.00;99.90
16674;DHT22;8450;52.654;10.326;2024-03-22T09:53:17;10.90;99.90
16674;DHT22;8450;52.654;10.326;2024-03-22T09:55:44;10.90;99.90
16674;DHT22;8450;52.654;10.326;2024-03-22T09:58:10;10.90;99.90
16674;DHT22;8450;52.654;10.326;2024-03-22T10:00:36;11.00;99.90
16674;DHT22;8450;52.654;10.326;2024-03-22T10:03:01;10.90;99.90
16674;DHT22;8450;52.654;10.326;2024-03-22T10:05:29;10.80;99.90
16674;DHT22;8450;52.654;10.326;2024-03-22T10:07:55;10.80;99.90
16674;DHT22;8450;52.654;10.326;2024-03-22T10:10:20;10.70;99.90
16674;DHT22;8450;52.654;10.326;2024-03-22T10:12:47;10.70;99.90
16674;DHT22;8450;52.654;10.326;2024-03-22T10:15:13;10.60;99.90
16674;DHT22;8450;52.654;10.326;2024-03-22T10:17:39;10.60;99.90
16674;DHT22;8450;52.654;10.326;2024-03-22T10:20:05;10.60;99.90
16674;DHT22;8450;52.654;10.326;2024-03-22T10:22:58;10.60;99.90
16674;DHT22;8450;52.654;10.326;2024-03-22T10:25:25;10.60;99.90
16674;DHT22;8450;52.654;10.326;2024-03-22T10:27:51;10.60;99.90
16674;DHT22;8450;52.654;10.326;2024-03-22T10:30:17;10.60;99.90
16674;DHT22;8450;52.654;10.326;2024-03-22T10:32:46;10.60;99.90
16674;DHT22;8450;52.654;10.326;2024-03-22T10:35:13;10.70;99.90
16674;DHT22;8450;52.654;10.326;2024-03-22T10:37:40;10.70;99.90
16674;DHT22;8450;52.654;10.326;2024-03-22T10:40:06;10.80;99.90
16674;DHT22;8450;52.654;10.326;2024-03-22T10:42:36;10.80;99.90
16674;DHT22;8450;52.654;10.326;2024-03-22T10:45:04;10.90;99.90
16674;DHT22;8450;52.654;10.326;2024-03-22T10:47:31;11.00;99.90
16674;DHT22;8450;52.654;10.326;2024-03-22T10:52:50;11.20;99.90
16674;DHT22;8450;52.654;10.326;2024-03-22T10:55:24;11.30;99.90
16674;DHT22;8450;52.654;10.326;2024-03-22T10:57:57;11.30;99.90
16674;DHT22;8450;52.654;10.326;2024-03-22T11:00:33;11.40;99.90
16674;DHT22;8450;52.654;10.326;2024-03-22T11:03:02;11.50;99.90
16674;DHT22;8450;52.654;10.326;2024-03-22T11:05:27;11.50;99.90
16674;DHT22;8450;52.654;10.326;2024-03-22T11:08:06;11.50;99.90
16674;DHT22;8450;52.654;10.326;2024-03-22T11:10:33;11.50;99.90
16674;DHT22;8450;52.654;10.326;2024-03-22T11:13:07;11.40;99.90
16674;DHT22;8450;52.654;10.326;2024-03-22T11:15:33;11.60;99.90
16674;DHT22;8450;52.654;10.326;2024-03-22T11:17:59;11.70;99.90
16674;DHT22;8450;52.654;10.326;2024-03-22T11:20:28;11.90;99.90
16674;DHT22;8450;52.654;10.326;2024-03-22T11:22:55;11.80;99.90
16674;DHT22;8450;52.654;10.326;2024-03-22T11:25:21;11.80;99.90
16674;DHT22;8450;52.654;10.326;2024-03-22T11:27:47;11.80;99.90
16674;DHT22;8450;52.654;10.326;2024-03-22T11:30:12;11.80;99.90
16674;DHT22;8450;52.654;10.326;2024-03-22T11:32:39;11.90;99.90
16674;DHT22;8450;52.654;10.326;2024-03-22T11:35:11;11.90;99.90
16674;DHT22;8450;52.654;10.326;2024-03-22T11:37:38;12.00;99.90
16674;DHT22;8450;52.654;10.326;2024-03-22T11:40:04;12.00;99.90
16674;DHT22;8450;52.654;10.326;2024-03-22T11:42:34;12.10;99.90
16674;DHT22;8450;52.654;10.326;2024-03-22T11:45:01;12.10;99.90
16674;DHT22;8450;52.654;10.326;2024-03-22T11:47:27;12.20;99.90
16674;DHT22;8450;52.654;10.326;2024-03-22T11:49:54;12.10;99.90
16674;DHT22;8450;52.654;10.326;2024-03-22T11:52:25;12.20;99.90
16674;DHT22;8450;52.654;10.326;2024-03-22T11:54:51;12.20;99.90
16674;DHT22;8450;52.654;10.326;2024-03-22T11:57:18;12.20;99.90
16674;DHT22;8450;52.654;10.326;2024-03-22T11:59:44;12.20;99.90
16674;DHT22;8450;52.654;10.326;2024-03-22T12:02:10;12.20;99.90
16674;DHT22;8450;52.654;10.326;2024-03-22T12:04:35;12.20;99.90
16674;DHT22;8450;52.654;10.326;2024-03-22T12:07:01;12.10;99.90
16674;DHT22;8450;52.654;10.326;2024-03-22T12:09:27;12.10;99.90
16674;DHT22;8450;52.654;10.326;2024-03-22T12:11:55;12.10;99.90
16674;DHT22;8450;52.654;10.326;2024-03-22T12:14:20;12.00;99.90
16674;DHT22;8450;52.654;10.326;2024-03-22T12:16:46;12.00;99.90
16674;DHT22;8450;52.654;10.326;2024-03-22T12:19:11;12.00;99.90
16674;DHT22;8450;52.654;10.326;2024-03-22T12:21:37;12.00;99.90
16674;DHT22;8450;52.654;10.326;2024-03-22T12:24:03;12.00;99.90
16674;DHT22;8450;52.654;10.326;2024-03-22T12:26:29;12.00;99.90
16674;DHT22;8450;52.654;10.326;2024-03-22T12:28:57;12.00;99.90
16674;DHT22;8450;52.654;10.326;2024-03-22T12:31:22;11.90;99.90
16674;DHT22;8450;52.654;10.326;2024-03-22T12:33:48;11.90;99.90
16674;DHT22;8450;52.654;10.326;2024-03-22T12:36:13;11.90;99.90
16674;DHT22;8450;52.654;10.326;2024-03-22T12:38:39;11.90;99.90
16674;DHT22;8450;52.654;10.326;2024-03-22T12:41:04;11.90;99.90
16674;DHT22;8450;52.654;10.326;2024-03-22T12:43:31;11.90;99.90
16674;DHT22;8450;52.654;10.326;2024-03-22T12:45:56;11.80;99.90
16674;DHT22;8450;52.654;10.326;2024-03-22T12:48:22;11.80;99.90
16674;DHT22;8450;52.654;10.326;2024-03-22T12:50:47;11.80;99.90
16674;DHT22;8450;52.654;10.326;2024-03-22T12:53:13;11.80;99.90
16674;DHT22;8450;52.654;10.326;2024-03-22T12:55:39;11.80;99.90
16674;DHT22;8450;52.654;10.326;2024-03-22T12:58:04;11.80;99.90
16674;DHT22;8450;52.654;10.326;2024-03-22T13:00:30;11.70;99.90
16674;DHT22;8450;52.654;10.326;2024-03-22T13:02:56;11.70;99.90
16674;DHT22;8450;52.654;10.326;2024-03-22T13:05:21;11.70;99.90
16674;DHT22;8450;52.654;10.326;2024-03-22T13:07:47;11.70;99.90
16674;DHT22;8450;52.654;10.326;2024-03-22T13:10:13;11.70;99.90
16674;DHT22;8450;52.654;10.326;2024-03-22T13:12:39;11.70;99.90
16674;DHT22;8450;52.654;10.326;2024-03-22T13:15:04;11.70;99.90
16674;DHT22;8450;52.654;10.326;2024-03-22T13:17:30;11.60;99.90
16674;DHT22;8450;52.654;10.326;2024-03-22T13:19:55;11.60;99.90
16674;DHT22;8450;52.654;10.326;2024-03-22T13:22:21;11.60;99.90
16674;DHT22;8450;52.654;10.326;2024-03-22T13:24:47;11.60;99.90
16674;DHT22;8450;52.654;10.326;2024-03-22T13:27:13;11.50;99.90
16674;DHT22;8450;52.654;10.326;2024-03-22T13:29:40;11.60;99.90
16674;DHT22;8450;52.654;10.326;2024-03-22T13:32:06;11.50;99.90
16674;DHT22;8450;52.654;10.326;2024-03-22T13:34:36;11.40;99.90
16674;DHT22;8450;52.654;10.326;2024-03-22T13:37:02;11.40;99.90
16674;DHT22;8450;52.654;10.326;2024-03-22T13:39:28;11.40;99.90
16674;DHT22;8450;52.654;10.326;2024-03-22T13:41:56;11.40;99.90
16674;DHT22;8450;52.654;10.326;2024-03-22T13:44:22;11.40;99.90
16674;DHT22;8450;52.654;10.326;2024-03-22T13:46:51;11.40;99.90
16674;DHT22;8450;52.654;10.326;2024-03-22T13:49:18;11.40;99.90
16674;DHT22;8450;52.654;10.326;2024-03-22T13:51:46;11.40;99.90
16674;DHT22;8450;52.654;10.326;2024-03-22T13:54:12;11.50;99.90
16674;DHT22;8450;52.654;10.326;2024-03-22T13:56:38;11.40;99.90
16674;DHT22;8450;52.654;10.326;2024-03-22T13:59:04;11.50;99.90
16674;DHT22;8450;52.654;10.326;2024-03-22T14:01:36;11.40;99.90
16674;DHT22;8450;52.654;10.326;2024-03-22T14:04:03;11.50;99.90
16674;DHT22;8450;52.654;10.326;2024-03-22T14:06:32;11.50;99.90
16674;DHT22;8450;52.654;10.326;2024-03-22T14:08:59;11.40;99.90
16674;DHT22;8450;52.654;10.326;2024-03-22T14:11:28;11.40;99.90
16674;DHT22;8450;52.654;10.326;2024-03-22T14:13:58;11.40;99.90
16674;DHT22;8450;52.654;10.326;2024-03-22T14:16:24;11.30;99.90
16674;DHT22;8450;52.654;10.326;2024-03-22T14:18:50;11.40;99.90
16674;DHT22;8450;52.654;10.326;2024-03-22T14:21:17;11.40;99.90
16674;DHT22;8450;52.654;10.326;2024-03-22T14:23:48;11.40;99.90
16674;DHT22;8450;52.654;10.326;2024-03-22T14:26:14;11.30;99.90
16674;DHT22;8450;52.654;10.326;2024-03-22T14:28:40;11.30;99.90
16674;DHT22;8450;52.654;10.326;2024-03-22T14:31:07;11.30;99.90
16674;DHT22;8450;52.654;10.326;2024-03-22T14:33:36;11.30;99.90
16674;DHT22;8450;52.654;10.326;2024-03-22T14:36:03;11.20;99.90
16674;DHT22;8450;52.654;10.326;2024-03-22T14:38:29;11.20;99.90
16674;DHT22;8450;52.654;10.326;2024-03-22T14:40:55;11.10;99.90
16674;DHT22;8450;52.654;10.326;2024-03-22T14:43:24;11.10;99.90
16674;DHT22;8450;52.654;10.326;2024-03-22T14:45:51;11.10;99.90
16674;DHT22;8450;52.654;10.326;2024-03-22T14:48:19;11.10;99.90
16674;DHT22;8450;52.654;10.326;2024-03-22T14:50:46;11.00;99.90
16674;DHT22;8450;52.654;10.326;2024-03-22T14:53:11;11.00;99.90
16674;DHT22;8450;52.654;10.326;2024-03-22T14:55:37;10.90;99.90
16674;DHT22;8450;52.654;10.326;2024-03-22T14:58:04;10.90;99.90
16674;DHT22;8450;52.654;10.326;2024-03-22T15:00:29;10.80;99.90
16674;DHT22;8450;52.654;10.326;2024-03-22T15:02:55;10.80;99.90
16674;DHT22;8450;52.654;10.326;2024-03-22T15:05:20;10.70;99.90
16674;DHT22;8450;52.654;10.326;2024-03-22T15:07:46;10.60;99.90
16674;DHT22;8450;52.654;10.326;2024-03-22T15:10:12;10.60;99.90
16674;DHT22;8450;52.654;10.326;2024-03-22T15:12:37;10.60;99.90
16674;DHT22;8450;52.654;10.326;2024-03-22T15:15:04;10.60;99.90
16674;DHT22;8450;52.654;10.326;2024-03-22T15:17:30;10.70;99.90
16674;DHT22;8450;52.654;10.326;2024-03-22T15:19:55;10.60;99.90
16674;DHT22;8450;52.654;10.326;2024-03-22T15:22:21;10.60;99.90
16674;DHT22;8450;52.654;10.326;2024-03-22T15:24:48;10.60;99.90
16674;DHT22;8450;52.654;10.326;2024-03-22T15:27:14;10.60;99.90
16674;DHT22;8450;52.654;10.326;2024-03-22T15:29:40;10.60;99.90
16674;DHT22;8450;52.654;10.326;2024-03-22T15:32:06;10.70;99.90
16674;DHT22;8450;52.654;10.326;2024-03-22T15:34:32;10.60;99.90